logo tempoitalia

Diretta Meteo Palermo-Punta Raisi, Italiasabato 15 agosto ore 09:20

Mappa
Sereno 29 °C Sereno 24 Ore: T.min 27 T.max 38
Ponente Nord Km/h 5.5 Punto di rugiada: 23 °C Umidità: 70% Visibilità: 10 Km
Il sole sorge alle: 06:21 Il sole tramonta alle: 20:02
15 Agosto 2020 09:20 tempo osservato: Sereno Sereno 29 70 1013 vento: Nord N 5.5
15 Agosto 2020 08:50 tempo osservato: Sereno Sereno 28 74 1012 vento: Nord N/NE 13
15 Agosto 2020 08:20 tempo osservato: Sereno Sereno 29 66 1012 vento: Nord N 3.7
15 Agosto 2020 07:50 tempo osservato: Sereno Sereno 28 51 1011 vento: Nord N 3.7
15 Agosto 2020 07:20 tempo osservato: Sereno Sereno 27 54 1011 vento: Nord N 5.5
15 Agosto 2020 06:50 tempo osservato: Sereno Sereno 27 50 1011 vento: Nord N 5.5
15 Agosto 2020 06:20 tempo osservato: Sereno Sereno 27 47 1011 vento: Nord S 7.4
15 Agosto 2020 05:50 tempo osservato: Sereno Sereno 28 48 1011 vento: Nord N 5.5
15 Agosto 2020 05:20 tempo osservato: Sereno Sereno 28 51 1011 vento: Nord N 5.5
15 Agosto 2020 04:50 tempo osservato: Sereno Sereno 28 51 1011 vento: Nord N 5.5
15 Agosto 2020 04:20 tempo osservato: Sereno Sereno 28 51 1011 vento: Nord S 11.1
15 Agosto 2020 03:50 tempo osservato: Sereno Sereno 28 54 1012 vento: Nord S 9.3
15 Agosto 2020 03:20 tempo osservato: Sereno Sereno 29 51 1012 vento: Nord S/SO 13
15 Agosto 2020 02:50 tempo osservato: Sereno Sereno 30 48 1012 vento: Nord SO 14.8
15 Agosto 2020 02:20 tempo osservato: Sereno Sereno 30 48 1013 vento: Nord S/SO 16.7
15 Agosto 2020 01:50 tempo osservato: Sereno Sereno 31 45 1013 vento: Nord S/SO 18.5
15 Agosto 2020 01:20 tempo osservato: Sereno Sereno 31 45 1013 vento: Nord S/SO 20.3
15 Agosto 2020 00:50 tempo osservato: Sereno Sereno 31 45 1013 vento: Nord S 24
15 Agosto 2020 00:20 tempo osservato: Sereno Sereno 31 43 1013 vento: Nord S 22.2
14 Agosto 2020 23:50 tempo osservato: Sereno Sereno 31 40 1013 vento: Nord S 25.9
14 Agosto 2020 23:20 tempo osservato: Sereno Sereno 32 35 1013 vento: Nord S/SO 31.5
14 Agosto 2020 22:50 tempo osservato: Sereno Sereno 32 33 1012 vento: Nord S/SO 25.9
14 Agosto 2020 22:20 tempo osservato: Sereno Sereno 33 31 1012 vento: Nord S/SO 25.9
14 Agosto 2020 21:50 tempo osservato: Sereno Sereno 32 35 1012 vento: Nord S/SO 22.2
14 Agosto 2020 21:20 tempo osservato: Sereno Sereno 33 33 1012 vento: Nord S/SO 22.2
14 Agosto 2020 20:20 tempo osservato: Sereno Sereno 34 28 1011 vento: Nord S 20.3
14 Agosto 2020 19:50 tempo osservato: Sereno Sereno 30 62 1011 vento: Nord N 5.5
14 Agosto 2020 18:50 tempo osservato: Sereno Sereno 31 66 1011 vento: Nord NE 14.8
14 Agosto 2020 18:20 tempo osservato: Sereno Sereno 37 25 1011 vento: Nord S/SO 20.3
14 Agosto 2020 17:50 tempo osservato: Sereno Sereno 37 27 1011 vento: Nord S/SO 24
14 Agosto 2020 16:50 tempo osservato: Sereno Sereno 38 29 1011 vento: Nord S/SO 29.6
14 Agosto 2020 16:20 tempo osservato: Sereno Sereno 38 27 1011 vento: Nord S/SO 31.5
14 Agosto 2020 15:50 tempo osservato: Sereno Sereno 37 28 1012 vento: Nord S/SO 31.5
14 Agosto 2020 15:20 tempo osservato: Nuvoloso Nuvoloso 37 28 1012 vento: Nord S/SO 33.3
14 Agosto 2020 14:50 tempo osservato: Sereno Sereno 32 35 1014 vento: Nord S 44.4
14 Agosto 2020 14:20 tempo osservato: Sereno Sereno 31 58 1013 vento: Nord O/SO 18.5
14 Agosto 2020 13:50 tempo osservato: Poco Nuvoloso Poco Nuvoloso 33 46 1013 vento: Nord SO 29.6
14 Agosto 2020 13:20 tempo osservato: Nuvoloso Nuvoloso 34 41 1013 vento: Nord SO 25.9
14 Agosto 2020 12:20 tempo osservato: Poco Nuvoloso Poco Nuvoloso 36 28 1013 vento: Nord SO 24
14 Agosto 2020 11:50 tempo osservato: Poco Nuvoloso Poco Nuvoloso 34 34 1013 vento: Nord SO 29.6
14 Agosto 2020 11:20 tempo osservato: Sereno Sereno 33 41 1013 vento: Nord SO 24
14 Agosto 2020 10:50 tempo osservato: Sereno Sereno 33 31 1013 vento: Nord SO 24
14 Agosto 2020 10:20 tempo osservato: Sereno Sereno 32 35 1014 vento: Nord SO 22.2
14 Agosto 2020 09:50 tempo osservato: Sereno Sereno 32 31 1013 vento: Nord SO 24